Time;durP1;ratioP1;P1;durP2;ratioP2;P2;SDS_P1;SDS_P2;PMS_P1;PMS_P2;Temp;Humidity;BMP_temperature;BMP_pressure;BME280_temperature;BME280_humidity;BME280_pressure;Samples;Min_cycle;Max_cycle;Signal;HPM_P1;HPM_P2
2023/06/29 00:03:17;;;;;;;5.25;2.53;;;;;;;18.29;86.76;99837.50;12210584;19;20032;-81
2023/06/29 00:07:20;;;;;;;3.45;1.80;;;;;;;18.27;87.44;99834.22;12216057;19;20025;-82
2023/06/29 00:11:22;;;;;;;4.90;2.03;;;;;;;18.25;87.33;99836.47;12192995;19;20003;-81
2023/06/29 00:15:24;;;;;;;3.60;1.97;;;;;;;18.21;87.71;99831.47;12212582;19;20014;-80
2023/06/29 00:19:26;;;;;;;4.43;2.15;;;;;;;18.20;87.61;99832.63;12212724;19;20513;-81
2023/06/29 00:24:32;;;;;;;;;;;;;;;;;;;;;
2023/06/29 00:28:40;;;;;;;3.83;2.03;;;;;;;18.12;88.56;99822.13;12207395;19;20003;-81
2023/06/29 00:32:44;;;;;;;5.90;2.03;;;;;;;18.10;88.79;99821.59;12189639;19;20026;-80
2023/06/29 00:37:13;;;;;;;5.45;2.20;;;;;;;18.06;89.08;99823.31;12214187;19;20002;-81
2023/06/29 00:42:54;;;;;;;;;;;;;;;;;;;;;
2023/06/29 00:57:10;;;;;;;4.00;1.92;;;;;;;17.89;90.92;99817.41;12187997;19;20647;-80
2023/06/29 01:01:27;;;;;;;4.78;2.20;;;;;;;17.86;91.56;99816.03;12200534;19;20015;-80
2023/06/29 01:05:56;;;;;;;5.90;2.13;;;;;;;17.82;92.62;99808.56;12185091;19;20011;-80
2023/06/29 01:10:29;;;;;;;6.70;2.20;;;;;;;17.80;92.57;99813.63;12210156;19;20006;-79
2023/06/29 01:14:37;;;;;;;8.48;2.58;;;;;;;17.77;91.99;99799.16;12181363;19;20449;-80
2023/06/29 01:18:49;;;;;;;3.00;2.05;;;;;;;17.74;92.74;99802.50;12209353;19;20018;-80
2023/06/29 01:23:07;;;;;;;4.80;2.22;;;;;;;17.74;93.29;99804.47;12186188;19;20007;-78
2023/06/29 01:27:15;;;;;;;3.33;2.10;;;;;;;17.69;93.38;99796.16;12205300;19;20026;-81
2023/06/29 01:31:27;;;;;;;7.18;2.30;;;;;;;17.68;93.85;99797.28;12218966;19;20020;-80
2023/06/29 01:35:28;;;;;;;5.00;1.98;;;;;;;17.64;94.15;99797.06;12197994;19;20445;-80
2023/06/29 01:39:40;;;;;;;4.60;2.30;;;;;;;17.62;94.59;99795.69;12221326;19;20020;-80
2023/06/29 01:43:44;;;;;;;5.70;2.08;;;;;;;17.59;94.58;99797.13;12218835;19;20066;-80
2023/06/29 01:47:49;;;;;;;4.28;2.53;;;;;;;17.55;95.18;99790.50;12198471;19;20007;-80
2023/06/29 01:51:52;;;;;;;3.25;1.77;;;;;;;17.54;95.61;99794.38;12220710;19;20019;-79
2023/06/29 01:55:54;;;;;;;4.03;2.20;;;;;;;17.49;96.02;99786.94;12199131;19;20023;-80
2023/06/29 01:59:56;;;;;;;5.40;2.37;;;;;;;17.43;95.79;99787.25;12213386;19;20639;-80
2023/06/29 02:03:57;;;;;;;4.68;2.38;;;;;;;17.36;96.34;99786.81;12219268;19;20101;-81
2023/06/29 02:07:59;;;;;;;5.00;2.05;;;;;;;17.28;97.14;99786.34;12196603;19;20487;-80
2023/06/29 02:12:02;;;;;;;4.47;2.42;;;;;;;17.24;97.64;99782.47;12224054;19;20008;-80
2023/06/29 02:16:04;;;;;;;5.50;2.67;;;;;;;17.21;98.27;99782.22;12226495;19;20039;-81
2023/06/29 02:20:09;;;;;;;3.67;2.17;;;;;;;17.17;98.89;99782.00;12201867;19;20019;-81
2023/06/29 02:24:12;;;;;;;3.88;2.30;;;;;;;17.12;98.67;99787.59;12219391;19;20006;-80
2023/06/29 02:28:13;;;;;;;3.65;2.20;;;;;;;17.08;99.36;99783.75;12218293;19;20024;-80
2023/06/29 02:32:15;;;;;;;6.05;2.38;;;;;;;17.05;99.91;99787.13;12197797;19;20117;-81
2023/06/29 02:36:20;;;;;;;4.20;2.50;;;;;;;17.00;100.00;99782.44;12216941;19;20007;-79
2023/06/29 02:40:23;;;;;;;5.70;2.58;;;;;;;16.96;100.00;99777.75;12216347;19;20338;-79
2023/06/29 02:44:25;;;;;;;4.72;2.65;;;;;;;16.91;100.00;99778.63;12193368;19;20015;-80
2023/06/29 02:48:27;;;;;;;4.65;2.55;;;;;;;16.87;100.00;99774.78;12217162;19;20011;-80
2023/06/29 02:52:29;;;;;;;4.00;2.45;;;;;;;16.81;100.00;99775.94;12219337;19;20027;-79
2023/06/29 02:56:30;;;;;;;6.97;2.72;;;;;;;16.73;100.00;99782.09;12198411;19;20018;-79
2023/06/29 03:00:32;;;;;;;4.75;2.78;;;;;;;16.66;100.00;99782.44;12216763;19;20074;-79
2023/06/29 03:04:35;;;;;;;4.65;2.20;;;;;;;16.67;100.00;99769.34;12218709;19;20011;-79
2023/06/29 03:08:36;;;;;;;4.25;2.10;;;;;;;16.69;100.00;99767.94;12193676;19;20014;-80
2023/06/29 03:12:38;;;;;;;6.03;2.45;;;;;;;16.68;100.00;99768.22;12216468;19;20023;-80
2023/06/29 03:16:40;;;;;;;3.92;2.35;;;;;;;16.62;100.00;99761.88;12216873;19;20085;-79
2023/06/29 03:20:41;;;;;;;4.80;2.28;;;;;;;16.60;100.00;99753.00;12195043;19;20006;-80
2023/06/29 03:24:43;;;;;;;4.18;2.30;;;;;;;16.60;100.00;99742.72;12214333;19;20023;-78
2023/06/29 03:28:45;;;;;;;4.35;2.13;;;;;;;16.64;100.00;99749.34;12215058;19;20069;-80
2023/06/29 03:32:47;;;;;;;5.78;2.38;;;;;;;16.66;100.00;99751.84;12194842;19;20524;-80
2023/06/29 03:36:48;;;;;;;5.28;2.42;;;;;;;16.64;100.00;99754.06;12216345;19;20034;-79
2023/06/29 03:40:50;;;;;;;5.88;2.78;;;;;;;16.63;100.00;99755.19;12217362;19;20011;-79
2023/06/29 03:44:52;;;;;;;4.72;2.45;;;;;;;16.64;100.00;99759.63;12234342;19;20031;-80
2023/06/29 03:48:53;;;;;;;4.03;2.30;;;;;;;16.66;100.00;99743.50;12236702;19;20062;-79
2023/06/29 03:52:56;;;;;;;4.55;2.63;;;;;;;16.71;100.00;99745.38;12206513;19;20077;-78
2023/06/29 03:56:57;;;;;;;4.00;2.30;;;;;;;16.70;100.00;99746.50;12217892;19;20028;-78
2023/06/29 04:01:01;;;;;;;5.20;2.40;;;;;;;16.67;100.00;99742.34;12212951;19;20109;-80
2023/06/29 04:05:03;;;;;;;3.97;2.55;;;;;;;16.64;100.00;99754.91;12192860;19;20010;-80
2023/06/29 04:09:06;;;;;;;6.53;2.40;;;;;;;16.66;100.00;99745.41;12214423;19;20416;-79
2023/06/29 04:13:07;;;;;;;7.43;2.65;;;;;;;16.67;100.00;99755.44;12212180;19;20027;-80
2023/06/29 04:17:10;;;;;;;4.70;2.20;;;;;;;16.62;100.00;99751.56;12192578;19;20109;-80
2023/06/29 04:21:11;;;;;;;5.28;2.92;;;;;;;16.59;100.00;99754.09;12214991;19;20122;-80
2023/06/29 04:25:13;;;;;;;4.78;2.30;;;;;;;16.55;100.00;99733.56;12212817;19;20021;-80
2023/06/29 04:29:17;;;;;;;6.13;2.92;;;;;;;16.56;100.00;99736.03;12190777;19;20025;-80
2023/06/29 04:33:19;;;;;;;6.90;3.00;;;;;;;16.61;100.00;99732.41;12212140;19;20078;-79
2023/06/29 04:37:22;;;;;;;3.35;2.40;;;;;;;16.64;100.00;99734.59;12212664;19;20010;-80
2023/06/29 04:41:31;;;;;;;4.88;2.60;;;;;;;16.64;100.00;99737.38;12188622;19;20081;-83
2023/06/29 04:45:33;;;;;;;5.18;2.80;;;;;;;16.65;100.00;99741.81;12209027;19;20019;-81
2023/06/29 04:49:37;;;;;;;5.63;2.75;;;;;;;16.65;100.00;99744.59;12212337;19;20010;-79
2023/06/29 04:53:41;;;;;;;3.45;2.58;;;;;;;16.68;100.00;99741.22;12186831;19;20046;-79
2023/06/29 04:57:43;;;;;;;3.38;2.30;;;;;;;16.73;100.00;99746.75;12208387;19;20476;-79
2023/06/29 05:01:45;;;;;;;3.90;2.60;;;;;;;16.80;100.00;99744.47;12201448;19;20025;-79
2023/06/29 05:05:47;;;;;;;4.57;2.60;;;;;;;16.91;100.00;99733.28;12192032;19;20010;-78
2023/06/29 05:09:48;;;;;;;4.13;2.15;;;;;;;16.99;100.00;99732.63;12210343;19;20002;-78
2023/06/29 05:13:50;;;;;;;5.43;2.47;;;;;;;17.08;100.00;99730.88;12209135;19;20338;-79
2023/06/29 05:17:54;;;;;;;4.22;2.40;;;;;;;17.17;100.00;99731.06;12215085;19;20346;-81
2023/06/29 05:21:56;;;;;;;4.45;2.60;;;;;;;17.25;100.00;99733.16;12213498;19;20007;-79
2023/06/29 05:25:59;;;;;;;3.83;2.45;;;;;;;17.35;100.00;99733.06;12189980;19;20007;-80
2023/06/29 05:30:01;;;;;;;5.30;2.65;;;;;;;17.45;100.00;99729.31;12211377;19;20083;-78
2023/06/29 05:34:04;;;;;;;5.45;2.85;;;;;;;17.54;100.00;99725.56;12213581;19;20007;-78
2023/06/29 05:38:06;;;;;;;4.73;2.73;;;;;;;17.68;100.00;99722.88;12192521;19;20039;-79
2023/06/29 05:42:08;;;;;;;4.47;2.92;;;;;;;17.82;100.00;99727.72;12211347;19;20006;-79
2023/06/29 05:46:10;;;;;;;4.87;2.87;;;;;;;17.97;100.00;99719.19;12212791;19;20120;-78
2023/06/29 05:50:12;;;;;;;5.57;2.60;;;;;;;18.12;100.00;99724.53;12190578;19;20018;-79
2023/06/29 05:54:14;;;;;;;6.07;2.60;;;;;;;18.33;100.00;99727.00;12212066;19;20023;-79
2023/06/29 05:58:15;;;;;;;3.15;2.30;;;;;;;18.56;100.00;99726.06;12212714;19;20477;-78
2023/06/29 06:02:20;;;;;;;4.97;2.65;;;;;;;18.72;100.00;99728.56;12190196;19;20474;-79
2023/06/29 06:06:22;;;;;;;4.55;2.60;;;;;;;18.89;100.00;99723.28;12211675;19;19998;-79
2023/06/29 06:10:26;;;;;;;8.23;2.83;;;;;;;19.00;100.00;99719.13;12209255;19;20006;-79
2023/06/29 06:14:28;;;;;;;4.53;2.60;;;;;;;19.13;100.00;99711.94;12189049;19;20010;-79
2023/06/29 06:18:30;;;;;;;6.47;2.73;;;;;;;19.29;98.18;99715.25;12224984;19;20007;-80
2023/06/29 06:22:35;;;;;;;5.13;2.65;;;;;;;19.39;96.70;99714.19;12253710;19;20010;-78
2023/06/29 06:26:37;;;;;;;8.10;2.63;;;;;;;19.52;95.86;99711.41;12230933;19;20061;-80
2023/06/29 06:30:38;;;;;;;4.68;2.47;;;;;;;19.70;95.09;99714.44;12228389;19;20599;-79
2023/06/29 06:34:43;;;;;;;7.78;2.72;;;;;;;19.93;93.13;99715.28;12228016;19;20376;-79
2023/06/29 06:38:45;;;;;;;;;;;;;;;20.15;92.54;99703.31;12205868;19;20006;-79
2023/06/29 06:42:52;;;;;;;4.97;2.70;;;;;;;20.42;91.00;99707.97;12215329;19;19985;-79
2023/06/29 06:46:54;;;;;;;6.00;2.20;;;;;;;20.67;88.32;99712.97;12214739;19;20484;-78
2023/06/29 06:50:56;;;;;;;5.63;2.20;;;;;;;20.94;84.90;99708.34;12220314;19;20006;-80
2023/06/29 06:54:58;;;;;;;4.27;2.20;;;;;;;21.23;82.82;99702.19;12219599;19;20006;-79
2023/06/29 06:59:00;;;;;;;5.18;1.88;;;;;;;21.50;81.51;99703.97;12200695;19;20014;-80
2023/06/29 07:03:01;;;;;;;6.03;2.45;;;;;;;21.72;78.66;99711.47;12218664;19;20010;-79
2023/06/29 07:07:08;;;;;;;7.80;2.00;;;;;;;21.99;76.07;99709.53;12221772;19;20007;-79
2023/06/29 07:11:10;;;;;;;4.67;2.40;;;;;;;22.22;73.13;99698.97;12195166;19;20367;-79
2023/06/29 07:15:12;;;;;;;8.27;2.70;;;;;;;22.47;72.04;99700.13;12218645;19;20010;-79
2023/06/29 07:19:15;;;;;;;4.67;2.03;;;;;;;22.74;69.61;99691.31;12219782;19;20023;-79
2023/06/29 07:23:20;;;;;;;7.38;2.20;;;;;;;23.04;67.66;99696.25;12196713;19;20007;-79
2023/06/29 07:27:24;;;;;;;3.25;2.03;;;;;;;23.33;66.11;99693.47;12218938;19;20010;-80
2023/06/29 07:31:28;;;;;;;6.18;1.85;;;;;;;23.57;64.25;99689.22;12222274;19;20019;-79
2023/06/29 07:35:30;;;;;;;10.57;2.28;;;;;;;23.71;61.00;99680.53;12200336;19;20027;-79
2023/06/29 07:39:33;;;;;;;3.93;1.90;;;;;;;23.86;59.48;99682.78;12226490;19;20006;-79
2023/06/29 07:43:35;;;;;;;6.65;2.17;;;;;;;24.16;58.63;99677.06;12226207;19;20347;-79
2023/06/29 07:47:39;;;;;;;5.05;1.83;;;;;;;24.40;57.20;99677.19;12202578;19;20009;-80
2023/06/29 07:51:42;;;;;;;4.40;1.90;;;;;;;24.58;56.26;99672.22;12220519;19;20007;-80
2023/06/29 07:55:46;;;;;;;6.78;2.25;;;;;;;24.81;56.23;99675.47;12221626;19;20021;-79
2023/06/29 07:59:50;;;;;;;16.63;2.75;;;;;;;25.04;55.77;99684.31;12196676;19;20006;-80
2023/06/29 08:03:52;;;;;;;3.83;1.80;;;;;;;25.32;54.11;99669.56;12217401;19;20027;-80
2023/06/29 08:08:06;;;;;;;4.15;1.80;;;;;;;25.66;51.45;99676.72;12192733;19;20011;-81
2023/06/29 08:12:08;;;;;;;3.10;1.98;;;;;;;26.24;50.62;99668.84;12213500;19;20011;-80
2023/06/29 08:16:12;;;;;;;6.53;2.33;;;;;;;26.64;48.71;99664.34;12216769;19;20015;-81
2023/06/29 08:20:14;;;;;;;;;;;;;;;26.45;48.52;99659.34;12196987;19;20545;-80
2023/06/29 08:24:19;;;;;;;5.30;2.03;;;;;;;26.58;48.38;99655.31;12216307;19;19927;-79
2023/06/29 08:28:22;;;;;;;5.20;2.00;;;;;;;26.66;47.15;99656.34;12218973;19;20018;-79
2023/06/29 08:32:23;;;;;;;4.25;1.60;;;;;;;26.78;47.71;99651.44;12195755;19;20377;-79
2023/06/29 08:36:29;;;;;;;2.42;1.50;;;;;;;26.81;45.22;99659.19;12215988;19;20010;-79
2023/06/29 08:40:35;;;;;;;3.53;1.60;;;;;;;26.76;45.10;99655.78;12213898;19;20351;-80
2023/06/29 08:44:41;;;;;;;3.30;1.50;;;;;;;26.76;45.98;99650.97;12192076;19;20015;-80
2023/06/29 08:48:45;;;;;;;5.15;1.70;;;;;;;26.73;46.16;99648.03;12215708;19;20002;-80
2023/06/29 08:52:48;;;;;;;9.45;2.30;;;;;;;26.56;47.26;99652.00;12214542;19;20017;-80
2023/06/29 08:56:52;;;;;;;6.15;2.05;;;;;;;26.90;46.60;99650.53;12197049;19;20010;-83
2023/06/29 09:00:57;;;;;;;3.90;1.70;;;;;;;27.07;44.70;99654.16;12213227;19;20007;-79
2023/06/29 09:04:59;;;;;;;4.47;1.80;;;;;;;26.99;44.77;99648.34;12192894;19;20019;-80
2023/06/29 09:09:06;;;;;;;4.82;1.60;;;;;;;27.17;44.14;99642.34;12213783;19;20826;-80
2023/06/29 09:13:09;;;;;;;3.13;1.80;;;;;;;27.53;43.45;99644.03;12212194;19;20014;-79
2023/06/29 09:17:16;;;;;;;3.33;1.50;;;;;;;27.77;42.87;99637.31;12189673;19;20019;-80
2023/06/29 09:21:21;;;;;;;2.58;1.73;;;;;;;28.11;41.99;99637.66;12213272;19;20017;-81
2023/06/29 09:25:25;;;;;;;4.00;1.60;;;;;;;28.32;40.85;99625.97;12211444;19;20353;-79
2023/06/29 09:29:37;;;;;;;5.20;1.90;;;;;;;28.69;40.03;99620.66;12190150;19;20013;-82
2023/06/29 09:33:42;;;;;;;3.22;1.85;;;;;;;28.94;40.22;99620.25;12213362;19;20010;-80
2023/06/29 09:37:45;;;;;;;5.32;2.10;;;;;;;28.73;39.37;99621.50;12214173;19;20010;-81
2023/06/29 09:41:58;;;;;;;3.42;1.90;;;;;;;28.08;41.00;99625.09;12194814;19;20350;-83
2023/06/29 09:46:08;;;;;;;2.15;1.50;;;;;;;27.62;41.22;99624.84;12224751;19;20015;-82
2023/06/29 09:50:21;;;;;;;2.88;1.50;;;;;;;27.59;41.86;99619.09;12195975;19;20010;-82
2023/06/29 09:54:25;;;;;;;2.13;1.40;;;;;;;27.69;41.65;99619.38;12222884;19;20007;-82
2023/06/29 09:58:29;;;;;;;;;;;;;;;27.78;41.33;99610.66;12226505;19;20010;-83
2023/06/29 10:02:31;;;;;;;3.47;1.27;;;;;;;27.77;41.78;99609.00;12209596;19;19923;-81
2023/06/29 10:06:37;;;;;;;3.25;1.48;;;;;;;27.83;42.16;99606.72;12272980;19;20011;-79
2023/06/29 10:10:42;;;;;;;2.95;1.40;;;;;;;28.52;39.84;99604.13;12237778;19;20455;-83
2023/06/29 10:14:46;;;;;;;4.75;1.52;;;;;;;28.66;40.46;99597.91;12198364;19;20031;-82
2023/06/29 10:18:50;;;;;;;6.13;2.58;;;;;;;28.74;40.09;99594.81;12223870;19;20014;-83
2023/06/29 10:22:55;;;;;;;2.80;1.58;;;;;;;28.92;39.47;99600.00;12224446;19;20131;-83
2023/06/29 10:26:58;;;;;;;5.10;1.75;;;;;;;29.33;38.08;99586.91;12198697;19;20014;-81
2023/06/29 10:31:01;;;;;;;3.05;1.70;;;;;;;29.34;38.71;99593.41;12220836;19;20113;-80
2023/06/29 10:35:08;;;;;;;2.05;1.45;;;;;;;29.16;38.43;99581.78;12198074;19;20468;-81
2023/06/29 10:39:46;;;;;;;3.45;1.73;;;;;;;29.24;38.05;99577.84;12221875;19;20009;-83
2023/06/29 10:44:04;;;;;;;3.85;1.85;;;;;;;29.35;37.51;99589.34;12216471;19;20023;-83
2023/06/29 10:48:13;;;;;;;7.05;1.73;;;;;;;29.55;36.66;99578.72;12194878;19;20377;-83
2023/06/29 10:52:32;;;;;;;4.28;1.52;;;;;;;29.77;36.73;99577.81;12219688;19;20018;-83
2023/06/29 10:56:33;;;;;;;3.38;1.60;;;;;;;29.92;35.80;99578.84;12195298;19;20027;-82
2023/06/29 11:00:37;;;;;;;6.03;2.20;;;;;;;29.91;35.85;99568.69;12242867;19;20361;-84
2023/06/29 11:04:43;;;;;;;3.70;2.10;;;;;;;29.60;36.47;99572.69;12217148;19;20015;-82
2023/06/29 11:08:47;;;;;;;5.88;2.70;;;;;;;29.53;37.14;99571.38;12198056;19;20579;-83
2023/06/29 11:12:50;;;;;;;5.90;2.33;;;;;;;29.44;37.38;99572.88;12219080;19;20010;-85
2023/06/29 11:16:54;;;;;;;4.22;2.08;;;;;;;29.18;36.89;99568.00;12217359;19;20007;-82
2023/06/29 11:21:00;;;;;;;3.17;2.10;;;;;;;28.92;37.36;99572.44;12197616;19;20006;-85
2023/06/29 11:25:02;;;;;;;3.22;2.17;;;;;;;28.73;37.62;99578.19;12215921;19;20496;-84
2023/06/29 11:29:08;;;;;;;5.20;2.42;;;;;;;28.59;37.63;99571.06;12196254;19;20014;-82
2023/06/29 11:33:12;;;;;;;4.60;2.28;;;;;;;28.09;38.81;99572.91;12219280;19;20017;-82
2023/06/29 11:37:37;;;;;;;5.05;2.22;;;;;;;27.62;39.99;99568.22;12219292;19;20031;-83
2023/06/29 11:41:40;;;;;;;3.17;2.25;;;;;;;27.26;40.70;99564.59;12197832;19;20011;-83
2023/06/29 11:45:43;;;;;;;2.47;1.55;;;;;;;26.99;41.44;99565.53;12216741;19;20023;-83
2023/06/29 11:49:49;;;;;;;;;;;;;;;26.58;42.00;99554.41;12213464;19;20015;-83
2023/06/29 11:59:20;;;;;;;4.88;2.30;;;;;;;25.95;43.67;99559.09;12197424;19;20055;-82
2023/06/29 12:03:23;;;;;;;6.00;2.63;;;;;;;25.78;44.87;99560.97;12215181;19;20073;-81
2023/06/29 12:07:41;;;;;;;5.07;2.20;;;;;;;25.65;45.62;99557.38;12212926;19;20014;-80
2023/06/29 12:11:43;;;;;;;3.45;2.13;;;;;;;25.55;48.67;99563.53;12189293;19;20011;-80
2023/06/29 12:15:44;;;;;;;4.30;2.30;;;;;;;25.31;54.09;99567.19;12210382;19;20034;-78
2023/06/29 12:19:54;;;;;;;4.95;2.40;;;;;;;24.99;58.15;99578.25;12215422;19;20307;-79
2023/06/29 12:24:16;;;;;;;7.20;2.65;;;;;;;24.68;60.18;99578.81;12216273;19;21478;-78
2023/06/29 12:28:18;;;;;;;5.00;2.78;;;;;;;24.47;62.11;99581.69;12211262;19;20010;-78
2023/06/29 12:32:21;;;;;;;5.15;2.50;;;;;;;24.40;67.54;99574.97;12218410;19;20563;-78
2023/06/29 12:36:23;;;;;;;8.15;2.80;;;;;;;24.30;73.46;99570.59;12205482;19;20006;-78
2023/06/29 12:40:29;;;;;;;6.97;2.50;;;;;;;24.17;75.96;99571.75;12215914;19;20029;-78
2023/06/29 12:44:33;;;;;;;4.75;2.90;;;;;;;24.07;77.36;99567.38;12214679;19;20006;-78
2023/06/29 12:48:39;;;;;;;6.38;2.88;;;;;;;24.02;79.37;99570.41;12194240;19;20007;-78
2023/06/29 12:52:41;;;;;;;7.78;3.10;;;;;;;24.01;78.08;99566.75;12215765;19;20017;-78
2023/06/29 12:56:45;;;;;;;4.70;2.90;;;;;;;24.10;78.33;99570.31;12217280;19;20007;-78
2023/06/29 13:00:47;;;;;;;4.65;2.75;;;;;;;24.38;77.40;99566.88;12195961;19;20464;-78
2023/06/29 13:04:52;;;;;;;10.68;3.30;;;;;;;24.94;73.75;99557.94;12215900;19;20390;-78
2023/06/29 13:08:55;;;;;;;10.43;3.47;;;;;;;25.59;69.14;99558.00;12194880;19;20369;-79
2023/06/29 13:12:57;;;;;;;8.63;2.58;;;;;;;26.05;64.27;99558.56;12215230;19;20260;-79
2023/06/29 13:17:00;;;;;;;6.47;2.90;;;;;;;26.32;60.69;99557.69;12216608;19;20027;-80
2023/06/29 13:21:03;;;;;;;4.53;2.90;;;;;;;26.78;58.66;99554.50;12194762;19;20039;-79
2023/06/29 13:25:05;;;;;;;5.95;3.10;;;;;;;27.13;54.42;99546.09;12219290;19;20030;-80
2023/06/29 13:29:07;;;;;;;4.63;2.60;;;;;;;27.49;52.77;99546.94;12232574;19;20015;-81
2023/06/29 13:33:09;;;;;;;3.42;2.42;;;;;;;28.00;50.08;99543.19;12216521;19;20022;-82
2023/06/29 13:37:12;;;;;;;5.90;2.30;;;;;;;29.58;46.58;99535.38;12240423;19;20063;-81
2023/06/29 13:41:14;;;;;;;13.23;2.65;;;;;;;31.07;41.83;99536.19;12240087;19;20392;-83
2023/06/29 13:45:16;;;;;;;4.97;2.70;;;;;;;31.94;37.98;99526.97;12218838;19;20014;-82
2023/06/29 13:49:27;;;;;;;7.07;2.72;;;;;;;31.53;37.36;99523.50;12244308;19;20010;-83
2023/06/29 13:53:33;;;;;;;3.72;2.50;;;;;;;30.76;38.62;99523.34;12237426;19;20013;-82
2023/06/29 13:57:35;;;;;;;24.42;3.97;;;;;;;30.12;40.55;99519.81;12220571;19;20017;-82
2023/06/29 14:01:39;;;;;;;4.10;2.42;;;;;;;29.40;40.08;99518.91;12246626;19;20010;-82
2023/06/29 14:05:40;;;;;;;5.15;2.78;;;;;;;28.98;41.36;99511.38;12243635;19;20037;-82
2023/06/29 14:09:44;;;;;;;6.43;2.63;;;;;;;29.06;40.98;99510.31;12220517;19;20017;-81
2023/06/29 14:13:46;;;;;;;5.75;3.25;;;;;;;28.91;40.78;99507.59;12236552;19;20011;-82
2023/06/29 14:17:47;;;;;;;6.47;3.47;;;;;;;28.81;41.31;99500.56;12232708;19;20011;-81
2023/06/29 14:21:50;;;;;;;5.00;2.90;;;;;;;29.56;40.09;99498.03;12216100;19;20018;-82
2023/06/29 14:25:53;;;;;;;4.82;3.25;;;;;;;30.24;38.35;99496.84;12236040;19;20103;-81
2023/06/29 14:29:55;;;;;;;5.00;2.95;;;;;;;30.85;37.77;99494.59;12213398;19;20019;-82
2023/06/29 14:33:59;;;;;;;6.15;3.00;;;;;;;31.15;36.36;99490.72;12235752;19;20402;-83
2023/06/29 14:38:02;;;;;;;5.30;3.13;;;;;;;31.10;36.69;99484.19;12226446;19;20017;-81
2023/06/29 14:42:15;;;;;;;5.05;3.13;;;;;;;31.20;36.87;99474.06;12198288;19;20007;-81
2023/06/29 14:46:16;;;;;;;6.85;3.58;;;;;;;31.94;35.39;99457.75;12219332;19;20018;-81
2023/06/29 14:50:20;;;;;;;6.00;3.30;;;;;;;33.02;33.65;99465.22;12218154;19;20006;-82
2023/06/29 14:54:22;;;;;;;5.60;3.90;;;;;;;32.82;33.20;99461.13;12197274;19;20775;-81
2023/06/29 14:58:25;;;;;;;5.55;3.13;;;;;;;33.07;32.14;99450.50;12221857;19;20013;-82
2023/06/29 15:02:27;;;;;;;6.60;3.35;;;;;;;32.74;32.57;99445.25;12222541;19;20010;-82
2023/06/29 15:06:31;;;;;;;5.80;3.88;;;;;;;32.17;33.67;99437.47;12200992;19;20483;-83
2023/06/29 15:10:33;;;;;;;4.53;3.30;;;;;;;32.02;33.44;99432.97;12220661;19;20006;-82
2023/06/29 15:14:35;;;;;;;5.38;3.05;;;;;;;32.17;33.29;99428.91;12219572;19;20011;-82
2023/06/29 15:18:38;;;;;;;6.68;3.65;;;;;;;32.71;32.33;99423.22;12198308;19;20019;-81
2023/06/29 15:22:59;;;;;;;5.45;3.42;;;;;;;32.00;33.12;99416.25;12219342;19;20338;-82
2023/06/29 15:27:00;;;;;;;;;;;;;;;31.27;34.14;99417.19;12197199;19;20019;-81
2023/06/29 15:31:02;;;;;;;10.35;3.17;;;;;;;30.85;34.51;99421.44;12218459;19;19924;-82
2023/06/29 15:35:05;;;;;;;4.05;2.80;;;;;;;30.55;35.15;99415.06;12214454;19;20013;-82
2023/06/29 15:39:07;;;;;;;5.68;3.40;;;;;;;30.53;35.22;99409.00;12193458;19;20018;-81
2023/06/29 15:43:09;;;;;;;11.63;4.28;;;;;;;30.43;35.97;99413.38;12215776;19;20006;-81
2023/06/29 15:47:11;;;;;;;6.97;3.40;;;;;;;30.12;35.97;99409.81;12219449;19;20002;-81
2023/06/29 15:51:13;;;;;;;;;;;;;;;29.66;36.73;99413.00;12195996;19;20047;-82
2023/06/29 15:55:14;;;;;;;7.93;3.87;;;;;;;29.33;36.97;99395.94;12217479;19;19919;-81
2023/06/29 15:59:17;;;;;;;5.18;3.40;;;;;;;29.20;37.33;99403.91;12219574;19;20026;-81
2023/06/29 16:03:19;;;;;;;5.10;3.42;;;;;;;29.03;37.61;99408.13;12195440;19;20431;-82
2023/06/29 16:07:24;;;;;;;;;;;;;;;28.95;38.64;99404.34;12218649;19;20010;-81
2023/06/29 16:11:26;;;;;;;6.78;3.55;;;;;;;29.14;37.12;99389.22;12215809;19;19923;-81
2023/06/29 16:15:28;;;;;;;5.97;3.50;;;;;;;29.10;36.76;99396.06;12189229;19;20460;-81
2023/06/29 16:19:31;;;;;;;5.75;3.72;;;;;;;29.08;36.77;99391.59;12210815;19;20017;-81
2023/06/29 16:23:33;;;;;;;5.97;3.88;;;;;;;29.05;37.22;99398.03;12213885;19;20102;-81
2023/06/29 16:27:34;;;;;;;5.72;3.53;;;;;;;29.21;37.24;99385.66;12194722;19;20077;-81
2023/06/29 16:31:36;;;;;;;10.88;4.03;;;;;;;29.26;37.03;99391.00;12212989;19;20030;-81
2023/06/29 16:35:39;;;;;;;10.85;3.85;;;;;;;29.26;38.25;99388.97;12208622;19;20028;-81
2023/06/29 16:39:41;;;;;;;10.35;3.65;;;;;;;29.04;39.05;99390.72;12189332;19;20074;-81
2023/06/29 16:43:42;;;;;;;5.90;3.70;;;;;;;28.95;39.86;99381.66;12209743;19;20879;-81
2023/06/29 16:47:44;;;;;;;6.70;3.35;;;;;;;28.84;40.03;99384.34;12213502;19;20018;-80
2023/06/29 16:51:46;;;;;;;5.68;3.00;;;;;;;28.98;39.68;99377.25;12190739;19;20053;-80
2023/06/29 16:55:48;;;;;;;9.20;4.03;;;;;;;28.92;39.95;99367.44;12212863;19;20019;-81
2023/06/29 16:59:50;;;;;;;;;;;;;;;28.94;40.05;99371.50;12192096;19;20376;-80
2023/06/29 17:03:52;;;;;;;7.73;3.80;;;;;;;28.92;40.12;99365.41;12212657;19;20305;-81
2023/06/29 17:07:55;;;;;;;7.88;3.83;;;;;;;28.78;41.00;99368.84;12211785;19;20598;-81
2023/06/29 17:11:57;;;;;;;7.40;3.72;;;;;;;28.59;41.47;99374.66;12189950;19;20047;-81
2023/06/29 17:15:59;;;;;;;10.95;4.40;;;;;;;28.44;41.80;99370.78;12213364;19;20010;-81
2023/06/29 17:20:02;;;;;;;6.47;3.65;;;;;;;28.40;41.72;99367.84;12211374;19;20508;-80
2023/06/29 17:24:05;;;;;;;7.28;3.85;;;;;;;28.26;42.17;99370.47;12189866;19;20010;-81
2023/06/29 17:28:06;;;;;;;11.35;4.10;;;;;;;28.14;42.74;99368.66;12213246;19;20014;-80
2023/06/29 17:32:09;;;;;;;8.57;4.28;;;;;;;27.90;43.21;99380.34;12209559;19;20007;-81
2023/06/29 17:36:11;;;;;;;7.82;3.42;;;;;;;27.71;43.91;99378.38;12189044;19;20003;-81
2023/06/29 17:40:13;;;;;;;6.88;3.85;;;;;;;27.62;44.88;99378.59;12211897;19;20027;-80
2023/06/29 17:44:14;;;;;;;7.32;3.60;;;;;;;27.55;44.59;99383.31;12209016;19;20015;-80
2023/06/29 17:48:16;;;;;;;9.13;4.05;;;;;;;27.35;45.21;99382.53;12193092;19;20539;-80
2023/06/29 17:52:18;;;;;;;8.27;3.63;;;;;;;27.23;45.68;99377.84;12208835;19;20026;-80
2023/06/29 17:56:20;;;;;;;;;;;;;;;27.01;46.84;99380.19;12209362;19;20382;-80
2023/06/29 18:00:22;;;;;;;6.10;3.42;;;;;;;26.88;46.58;99378.66;12183022;19;20234;-80
2023/06/29 18:04:24;;;;;;;;;;;;;;;26.64;47.00;99376.09;12203912;19;20075;-80
2023/06/29 18:08:26;;;;;;;10.90;4.13;;;;;;;26.44;48.20;99378.00;12202846;19;19939;-80
2023/06/29 18:12:28;;;;;;;6.13;3.60;;;;;;;26.18;49.38;99385.06;12187826;19;20011;-80
2023/06/29 18:16:31;;;;;;;9.05;3.97;;;;;;;25.93;50.57;99381.59;12223349;19;20030;-81
2023/06/29 18:20:33;;;;;;;11.13;4.38;;;;;;;25.68;50.96;99380.91;12225563;19;20007;-80
2023/06/29 18:24:35;;;;;;;6.38;3.70;;;;;;;25.44;52.22;99385.50;12200680;19;20730;-80
2023/06/29 18:28:37;;;;;;;7.30;3.60;;;;;;;25.24;53.15;99390.16;12216010;19;20007;-80
2023/06/29 18:32:39;;;;;;;8.48;4.50;;;;;;;25.04;53.74;99385.50;12221342;19;20010;-81
2023/06/29 18:36:41;;;;;;;5.45;3.28;;;;;;;24.88;54.71;99385.44;12197198;19;20018;-80
2023/06/29 18:40:43;;;;;;;7.17;3.73;;;;;;;24.75;55.60;99386.66;12217025;19;20031;-79
2023/06/29 18:44:45;;;;;;;7.93;3.88;;;;;;;24.62;56.58;99391.47;12219886;19;20267;-81
2023/06/29 18:48:47;;;;;;;7.00;4.07;;;;;;;24.52;57.87;99377.88;12205041;19;20027;-81
2023/06/29 18:52:49;;;;;;;10.68;4.35;;;;;;;24.44;58.24;99378.81;12221424;19;20010;-80
2023/06/29 18:56:51;;;;;;;10.05;4.20;;;;;;;24.38;58.29;99381.00;12197565;19;20006;-80
2023/06/29 19:00:53;;;;;;;11.60;4.32;;;;;;;24.30;58.67;99379.97;12221924;19;20014;-79
2023/06/29 19:04:55;;;;;;;6.17;3.97;;;;;;;24.25;59.27;99383.03;12214255;19;20445;-79
2023/06/29 19:08:56;;;;;;;7.43;4.00;;;;;;;24.18;59.42;99379.13;12193742;19;20014;-79
2023/06/29 19:12:58;;;;;;;15.48;4.40;;;;;;;24.10;60.05;99380.91;12214745;19;20019;-79
2023/06/29 19:17:01;;;;;;;10.75;4.10;;;;;;;24.00;60.32;99386.97;12218010;19;20036;-79